sensor_id;sensor_type;location;lat;lon;timestamp;P1;durP1;ratioP1;P2;durP2;ratioP2
72547;SDS011;60570;50.848;6.776;2023-02-13T00:00:05;10.27;;;6.55;;
72547;SDS011;60570;50.848;6.776;2023-02-13T00:01:11;10.48;;;6.57;;
72547;SDS011;60570;50.848;6.776;2023-02-13T00:02:12;9.48;;;6.43;;
72547;SDS011;60570;50.848;6.776;2023-02-13T00:03:13;10.32;;;6.72;;
72547;SDS011;60570;50.848;6.776;2023-02-13T00:04:13;12.07;;;7.35;;
72547;SDS011;60570;50.848;6.776;2023-02-13T00:05:14;10.50;;;6.53;;
72547;SDS011;60570;50.848;6.776;2023-02-13T00:06:14;10.38;;;6.80;;
72547;SDS011;60570;50.848;6.776;2023-02-13T00:07:15;10.10;;;6.57;;
72547;SDS011;60570;50.848;6.776;2023-02-13T00:08:15;10.75;;;6.75;;
72547;SDS011;60570;50.848;6.776;2023-02-13T00:09:16;11.48;;;7.25;;
72547;SDS011;60570;50.848;6.776;2023-02-13T00:10:16;10.77;;;7.03;;
72547;SDS011;60570;50.848;6.776;2023-02-13T00:11:17;10.97;;;6.90;;
72547;SDS011;60570;50.848;6.776;2023-02-13T00:12:19;11.90;;;7.40;;
72547;SDS011;60570;50.848;6.776;2023-02-13T00:13:20;11.70;;;7.20;;
72547;SDS011;60570;50.848;6.776;2023-02-13T00:14:20;10.57;;;6.67;;
72547;SDS011;60570;50.848;6.776;2023-02-13T00:15:21;12.43;;;7.17;;
72547;SDS011;60570;50.848;6.776;2023-02-13T00:16:21;11.80;;;7.60;;
72547;SDS011;60570;50.848;6.776;2023-02-13T00:17:21;11.27;;;7.60;;
72547;SDS011;60570;50.848;6.776;2023-02-13T00:18:22;12.17;;;8.10;;
72547;SDS011;60570;50.848;6.776;2023-02-13T00:19:22;10.95;;;7.10;;
72547;SDS011;60570;50.848;6.776;2023-02-13T00:20:23;13.47;;;7.90;;
72547;SDS011;60570;50.848;6.776;2023-02-13T00:21:23;11.98;;;7.40;;
72547;SDS011;60570;50.848;6.776;2023-02-13T00:22:24;12.53;;;7.47;;
72547;SDS011;60570;50.848;6.776;2023-02-13T00:23:24;11.07;;;7.18;;
72547;SDS011;60570;50.848;6.776;2023-02-13T00:24:25;11.90;;;7.77;;
72547;SDS011;60570;50.848;6.776;2023-02-13T00:25:25;12.00;;;7.40;;
72547;SDS011;60570;50.848;6.776;2023-02-13T00:26:26;11.98;;;7.55;;
72547;SDS011;60570;50.848;6.776;2023-02-13T00:27:26;11.87;;;7.60;;
72547;SDS011;60570;50.848;6.776;2023-02-13T00:28:27;11.67;;;7.80;;
72547;SDS011;60570;50.848;6.776;2023-02-13T00:29:27;12.20;;;8.18;;
72547;SDS011;60570;50.848;6.776;2023-02-13T00:30:28;12.63;;;8.07;;
72547;SDS011;60570;50.848;6.776;2023-02-13T00:31:28;12.75;;;7.95;;
72547;SDS011;60570;50.848;6.776;2023-02-13T00:32:29;11.37;;;7.77;;
72547;SDS011;60570;50.848;6.776;2023-02-13T00:33:30;11.60;;;7.88;;
72547;SDS011;60570;50.848;6.776;2023-02-13T00:34:30;12.35;;;8.05;;
72547;SDS011;60570;50.848;6.776;2023-02-13T00:35:31;13.27;;;8.50;;
72547;SDS011;60570;50.848;6.776;2023-02-13T00:36:31;12.20;;;8.20;;
72547;SDS011;60570;50.848;6.776;2023-02-13T00:37:32;11.83;;;8.17;;
72547;SDS011;60570;50.848;6.776;2023-02-13T00:38:33;13.75;;;8.75;;
72547;SDS011;60570;50.848;6.776;2023-02-13T00:39:34;13.20;;;8.50;;
72547;SDS011;60570;50.848;6.776;2023-02-13T00:40:35;12.40;;;8.47;;
72547;SDS011;60570;50.848;6.776;2023-02-13T00:41:35;13.95;;;8.88;;
72547;SDS011;60570;50.848;6.776;2023-02-13T00:42:35;13.37;;;8.43;;
72547;SDS011;60570;50.848;6.776;2023-02-13T00:43:36;13.25;;;8.52;;
72547;SDS011;60570;50.848;6.776;2023-02-13T00:44:37;14.15;;;9.02;;
72547;SDS011;60570;50.848;6.776;2023-02-13T00:45:37;13.83;;;8.87;;
72547;SDS011;60570;50.848;6.776;2023-02-13T00:46:38;13.68;;;8.90;;
72547;SDS011;60570;50.848;6.776;2023-02-13T00:47:38;13.90;;;8.83;;
72547;SDS011;60570;50.848;6.776;2023-02-13T00:48:39;13.70;;;8.70;;
72547;SDS011;60570;50.848;6.776;2023-02-13T00:49:39;13.77;;;8.73;;
72547;SDS011;60570;50.848;6.776;2023-02-13T00:50:40;15.88;;;9.07;;
72547;SDS011;60570;50.848;6.776;2023-02-13T00:51:41;13.20;;;8.68;;
72547;SDS011;60570;50.848;6.776;2023-02-13T00:52:41;13.23;;;8.63;;
72547;SDS011;60570;50.848;6.776;2023-02-13T00:53:42;13.82;;;9.20;;
72547;SDS011;60570;50.848;6.776;2023-02-13T00:54:42;13.60;;;8.53;;
72547;SDS011;60570;50.848;6.776;2023-02-13T00:55:43;16.67;;;8.93;;
72547;SDS011;60570;50.848;6.776;2023-02-13T00:56:43;18.77;;;9.05;;
72547;SDS011;60570;50.848;6.776;2023-02-13T00:57:44;15.65;;;9.30;;
72547;SDS011;60570;50.848;6.776;2023-02-13T00:58:44;14.50;;;8.83;;
72547;SDS011;60570;50.848;6.776;2023-02-13T00:59:45;16.20;;;9.40;;
72547;SDS011;60570;50.848;6.776;2023-02-13T01:00:45;13.10;;;8.40;;
72547;SDS011;60570;50.848;6.776;2023-02-13T01:01:46;14.00;;;8.80;;
72547;SDS011;60570;50.848;6.776;2023-02-13T01:02:47;14.82;;;9.27;;
72547;SDS011;60570;50.848;6.776;2023-02-13T01:03:47;15.47;;;9.47;;
72547;SDS011;60570;50.848;6.776;2023-02-13T01:04:48;14.20;;;9.25;;
72547;SDS011;60570;50.848;6.776;2023-02-13T01:05:48;14.30;;;9.30;;
72547;SDS011;60570;50.848;6.776;2023-02-13T01:06:50;13.95;;;9.05;;
72547;SDS011;60570;50.848;6.776;2023-02-13T01:07:50;13.87;;;8.90;;
72547;SDS011;60570;50.848;6.776;2023-02-13T01:08:51;14.85;;;8.95;;
72547;SDS011;60570;50.848;6.776;2023-02-13T01:09:51;15.20;;;9.10;;
72547;SDS011;60570;50.848;6.776;2023-02-13T01:10:52;14.23;;;9.07;;
72547;SDS011;60570;50.848;6.776;2023-02-13T01:11:54;14.70;;;9.75;;
72547;SDS011;60570;50.848;6.776;2023-02-13T01:12:54;14.60;;;9.53;;
72547;SDS011;60570;50.848;6.776;2023-02-13T01:13:55;13.57;;;9.07;;
72547;SDS011;60570;50.848;6.776;2023-02-13T01:14:55;13.40;;;8.63;;
72547;SDS011;60570;50.848;6.776;2023-02-13T01:15:55;15.23;;;9.13;;
72547;SDS011;60570;50.848;6.776;2023-02-13T01:16:56;14.53;;;9.27;;
72547;SDS011;60570;50.848;6.776;2023-02-13T01:17:56;14.70;;;9.17;;
72547;SDS011;60570;50.848;6.776;2023-02-13T01:18:57;14.27;;;8.93;;
72547;SDS011;60570;50.848;6.776;2023-02-13T01:19:58;14.17;;;8.73;;
72547;SDS011;60570;50.848;6.776;2023-02-13T01:21:03;14.90;;;9.13;;
72547;SDS011;60570;50.848;6.776;2023-02-13T01:22:07;13.63;;;9.32;;
72547;SDS011;60570;50.848;6.776;2023-02-13T01:23:07;13.57;;;8.80;;
72547;SDS011;60570;50.848;6.776;2023-02-13T01:24:08;13.35;;;8.80;;
72547;SDS011;60570;50.848;6.776;2023-02-13T01:25:09;14.40;;;9.50;;
72547;SDS011;60570;50.848;6.776;2023-02-13T01:26:10;14.20;;;8.87;;
72547;SDS011;60570;50.848;6.776;2023-02-13T01:27:16;13.43;;;9.00;;
72547;SDS011;60570;50.848;6.776;2023-02-13T01:28:17;14.50;;;8.98;;
72547;SDS011;60570;50.848;6.776;2023-02-13T01:29:17;14.97;;;9.07;;
72547;SDS011;60570;50.848;6.776;2023-02-13T01:30:17;14.43;;;9.18;;
72547;SDS011;60570;50.848;6.776;2023-02-13T01:31:18;14.47;;;9.50;;
72547;SDS011;60570;50.848;6.776;2023-02-13T01:32:19;13.85;;;9.05;;
72547;SDS011;60570;50.848;6.776;2023-02-13T01:33:20;13.40;;;8.88;;
72547;SDS011;60570;50.848;6.776;2023-02-13T01:34:21;14.73;;;8.60;;
72547;SDS011;60570;50.848;6.776;2023-02-13T01:35:21;13.15;;;8.82;;
72547;SDS011;60570;50.848;6.776;2023-02-13T01:36:22;13.00;;;8.70;;
72547;SDS011;60570;50.848;6.776;2023-02-13T01:37:23;14.63;;;9.10;;
72547;SDS011;60570;50.848;6.776;2023-02-13T01:38:23;13.25;;;8.60;;
72547;SDS011;60570;50.848;6.776;2023-02-13T01:39:24;14.77;;;8.97;;
72547;SDS011;60570;50.848;6.776;2023-02-13T01:40:24;13.90;;;8.88;;
72547;SDS011;60570;50.848;6.776;2023-02-13T01:41:29;14.32;;;8.98;;
72547;SDS011;60570;50.848;6.776;2023-02-13T01:42:30;14.00;;;8.68;;
72547;SDS011;60570;50.848;6.776;2023-02-13T01:44:58;13.52;;;8.80;;
72547;SDS011;60570;50.848;6.776;2023-02-13T01:46:20;12.98;;;8.50;;
72547;SDS011;60570;50.848;6.776;2023-02-13T01:47:26;13.63;;;8.95;;
72547;SDS011;60570;50.848;6.776;2023-02-13T01:48:40;14.32;;;9.27;;
72547;SDS011;60570;50.848;6.776;2023-02-13T01:49:41;14.25;;;8.95;;
72547;SDS011;60570;50.848;6.776;2023-02-13T01:51:07;12.65;;;8.23;;
72547;SDS011;60570;50.848;6.776;2023-02-13T01:52:14;12.70;;;8.40;;
72547;SDS011;60570;50.848;6.776;2023-02-13T01:54:26;12.88;;;8.10;;
72547;SDS011;60570;50.848;6.776;2023-02-13T01:55:30;13.65;;;8.90;;
72547;SDS011;60570;50.848;6.776;2023-02-13T01:56:35;12.95;;;8.32;;
72547;SDS011;60570;50.848;6.776;2023-02-13T01:57:40;13.25;;;8.50;;
72547;SDS011;60570;50.848;6.776;2023-02-13T01:58:46;14.60;;;8.77;;
72547;SDS011;60570;50.848;6.776;2023-02-13T01:59:54;13.60;;;8.95;;
72547;SDS011;60570;50.848;6.776;2023-02-13T02:01:00;13.52;;;8.70;;
72547;SDS011;60570;50.848;6.776;2023-02-13T02:02:01;13.50;;;9.02;;
72547;SDS011;60570;50.848;6.776;2023-02-13T02:03:10;13.40;;;8.25;;
72547;SDS011;60570;50.848;6.776;2023-02-13T02:05:19;13.30;;;8.38;;
72547;SDS011;60570;50.848;6.776;2023-02-13T02:06:24;12.68;;;8.68;;
72547;SDS011;60570;50.848;6.776;2023-02-13T02:07:27;13.15;;;8.38;;
72547;SDS011;60570;50.848;6.776;2023-02-13T02:08:29;13.18;;;8.57;;
72547;SDS011;60570;50.848;6.776;2023-02-13T02:09:31;12.88;;;8.70;;
72547;SDS011;60570;50.848;6.776;2023-02-13T02:10:36;13.32;;;8.45;;
72547;SDS011;60570;50.848;6.776;2023-02-13T02:11:43;12.45;;;8.00;;
72547;SDS011;60570;50.848;6.776;2023-02-13T02:12:52;13.05;;;8.05;;
72547;SDS011;60570;50.848;6.776;2023-02-13T02:14:05;12.00;;;8.10;;
72547;SDS011;60570;50.848;6.776;2023-02-13T02:15:06;12.23;;;8.40;;
72547;SDS011;60570;50.848;6.776;2023-02-13T02:16:07;13.80;;;8.70;;
72547;SDS011;60570;50.848;6.776;2023-02-13T02:17:08;13.63;;;8.63;;
72547;SDS011;60570;50.848;6.776;2023-02-13T02:18:15;12.52;;;8.55;;
72547;SDS011;60570;50.848;6.776;2023-02-13T02:27:45;13.75;;;8.90;;
72547;SDS011;60570;50.848;6.776;2023-02-13T02:33:30;13.35;;;8.57;;
72547;SDS011;60570;50.848;6.776;2023-02-13T02:38:41;12.50;;;8.25;;
72547;SDS011;60570;50.848;6.776;2023-02-13T02:41:09;13.02;;;8.10;;
72547;SDS011;60570;50.848;6.776;2023-02-13T02:44:02;12.50;;;8.25;;
72547;SDS011;60570;50.848;6.776;2023-02-13T02:45:29;12.77;;;8.30;;
72547;SDS011;60570;50.848;6.776;2023-02-13T02:46:47;11.30;;;7.65;;
72547;SDS011;60570;50.848;6.776;2023-02-13T02:48:32;12.60;;;8.00;;
72547;SDS011;60570;50.848;6.776;2023-02-13T02:50:31;13.05;;;8.40;;
72547;SDS011;60570;50.848;6.776;2023-02-13T02:53:06;13.35;;;8.60;;
72547;SDS011;60570;50.848;6.776;2023-02-13T02:54:24;12.40;;;8.20;;
72547;SDS011;60570;50.848;6.776;2023-02-13T02:55:54;12.52;;;7.85;;
72547;SDS011;60570;50.848;6.776;2023-02-13T02:57:06;12.15;;;7.88;;
72547;SDS011;60570;50.848;6.776;2023-02-13T02:58:17;11.27;;;8.07;;
72547;SDS011;60570;50.848;6.776;2023-02-13T02:59:40;12.60;;;8.10;;
72547;SDS011;60570;50.848;6.776;2023-02-13T03:01:01;11.23;;;7.93;;
72547;SDS011;60570;50.848;6.776;2023-02-13T03:02:25;11.55;;;8.07;;
72547;SDS011;60570;50.848;6.776;2023-02-13T03:03:45;12.82;;;8.40;;
72547;SDS011;60570;50.848;6.776;2023-02-13T03:05:08;12.85;;;8.02;;
72547;SDS011;60570;50.848;6.776;2023-02-13T03:07:01;11.50;;;7.72;;
72547;SDS011;60570;50.848;6.776;2023-02-13T03:08:03;12.38;;;7.82;;
72547;SDS011;60570;50.848;6.776;2023-02-13T03:09:05;12.80;;;8.10;;
72547;SDS011;60570;50.848;6.776;2023-02-13T03:10:31;11.43;;;7.47;;
72547;SDS011;60570;50.848;6.776;2023-02-13T03:11:53;11.50;;;7.78;;
72547;SDS011;60570;50.848;6.776;2023-02-13T03:13:27;12.10;;;7.50;;
72547;SDS011;60570;50.848;6.776;2023-02-13T03:14:35;11.55;;;7.97;;
72547;SDS011;60570;50.848;6.776;2023-02-13T03:15:38;11.85;;;7.90;;
72547;SDS011;60570;50.848;6.776;2023-02-13T03:17:01;11.60;;;7.43;;
72547;SDS011;60570;50.848;6.776;2023-02-13T03:18:22;11.80;;;7.65;;
72547;SDS011;60570;50.848;6.776;2023-02-13T03:21:05;11.30;;;7.57;;
72547;SDS011;60570;50.848;6.776;2023-02-13T03:22:52;12.32;;;8.07;;
72547;SDS011;60570;50.848;6.776;2023-02-13T03:24:01;11.50;;;7.50;;
72547;SDS011;60570;50.848;6.776;2023-02-13T03:27:38;11.90;;;7.45;;
72547;SDS011;60570;50.848;6.776;2023-02-13T03:29:08;12.32;;;7.78;;
72547;SDS011;60570;50.848;6.776;2023-02-13T03:32:05;11.53;;;7.90;;
72547;SDS011;60570;50.848;6.776;2023-02-13T03:33:26;10.52;;;6.88;;
72547;SDS011;60570;50.848;6.776;2023-02-13T03:34:40;11.13;;;7.60;;
72547;SDS011;60570;50.848;6.776;2023-02-13T03:37:29;11.40;;;7.78;;
72547;SDS011;60570;50.848;6.776;2023-02-13T03:40:33;10.85;;;7.32;;
72547;SDS011;60570;50.848;6.776;2023-02-13T03:41:37;11.52;;;7.70;;
72547;SDS011;60570;50.848;6.776;2023-02-13T03:42:43;11.82;;;7.78;;
72547;SDS011;60570;50.848;6.776;2023-02-13T03:45:18;11.68;;;7.78;;
72547;SDS011;60570;50.848;6.776;2023-02-13T03:46:43;11.35;;;8.00;;
72547;SDS011;60570;50.848;6.776;2023-02-13T03:47:46;11.75;;;7.55;;
72547;SDS011;60570;50.848;6.776;2023-02-13T03:48:50;11.27;;;7.72;;
72547;SDS011;60570;50.848;6.776;2023-02-13T03:50:10;11.33;;;7.40;;
72547;SDS011;60570;50.848;6.776;2023-02-13T03:51:59;10.27;;;7.25;;
72547;SDS011;60570;50.848;6.776;2023-02-13T03:52:55;10.98;;;7.25;;
72547;SDS011;60570;50.848;6.776;2023-02-13T03:54:09;12.07;;;7.13;;
72547;SDS011;60570;50.848;6.776;2023-02-13T03:55:23;10.88;;;7.25;;
72547;SDS011;60570;50.848;6.776;2023-02-13T03:56:48;11.07;;;7.40;;
72547;SDS011;60570;50.848;6.776;2023-02-13T03:58:16;11.57;;;7.75;;
72547;SDS011;60570;50.848;6.776;2023-02-13T03:59:40;10.93;;;6.95;;
72547;SDS011;60570;50.848;6.776;2023-02-13T04:00:42;11.33;;;7.63;;
72547;SDS011;60570;50.848;6.776;2023-02-13T04:04:33;10.82;;;7.30;;
72547;SDS011;60570;50.848;6.776;2023-02-13T04:05:45;10.83;;;7.30;;
72547;SDS011;60570;50.848;6.776;2023-02-13T04:08:06;11.65;;;7.25;;
72547;SDS011;60570;50.848;6.776;2023-02-13T04:09:06;11.00;;;7.47;;
72547;SDS011;60570;50.848;6.776;2023-02-13T04:10:11;13.15;;;7.68;;
72547;SDS011;60570;50.848;6.776;2023-02-13T04:11:27;11.30;;;7.50;;
72547;SDS011;60570;50.848;6.776;2023-02-13T04:13:51;10.73;;;7.10;;
72547;SDS011;60570;50.848;6.776;2023-02-13T04:15:01;12.67;;;7.83;;
72547;SDS011;60570;50.848;6.776;2023-02-13T04:16:12;10.80;;;7.27;;
72547;SDS011;60570;50.848;6.776;2023-02-13T04:17:22;11.80;;;7.32;;
72547;SDS011;60570;50.848;6.776;2023-02-13T04:18:30;11.15;;;7.57;;
72547;SDS011;60570;50.848;6.776;2023-02-13T04:19:32;11.73;;;7.28;;
72547;SDS011;60570;50.848;6.776;2023-02-13T04:20:33;11.68;;;7.43;;
72547;SDS011;60570;50.848;6.776;2023-02-13T04:21:34;11.00;;;7.38;;
72547;SDS011;60570;50.848;6.776;2023-02-13T04:22:43;10.75;;;7.55;;
72547;SDS011;60570;50.848;6.776;2023-02-13T04:23:45;12.88;;;7.97;;
72547;SDS011;60570;50.848;6.776;2023-02-13T04:24:46;10.23;;;6.90;;
72547;SDS011;60570;50.848;6.776;2023-02-13T04:25:47;11.37;;;7.67;;
72547;SDS011;60570;50.848;6.776;2023-02-13T04:26:51;11.13;;;7.28;;
72547;SDS011;60570;50.848;6.776;2023-02-13T04:27:52;11.77;;;7.65;;
72547;SDS011;60570;50.848;6.776;2023-02-13T04:28:53;10.47;;;7.17;;
72547;SDS011;60570;50.848;6.776;2023-02-13T04:29:53;11.40;;;7.35;;
72547;SDS011;60570;50.848;6.776;2023-02-13T04:30:54;11.37;;;7.70;;
72547;SDS011;60570;50.848;6.776;2023-02-13T04:31:54;11.43;;;7.23;;
72547;SDS011;60570;50.848;6.776;2023-02-13T04:32:55;10.98;;;7.55;;
72547;SDS011;60570;50.848;6.776;2023-02-13T04:33:55;12.40;;;7.47;;
72547;SDS011;60570;50.848;6.776;2023-02-13T04:34:55;11.05;;;7.50;;
72547;SDS011;60570;50.848;6.776;2023-02-13T04:35:56;11.37;;;7.50;;
72547;SDS011;60570;50.848;6.776;2023-02-13T04:36:57;11.13;;;7.68;;
72547;SDS011;60570;50.848;6.776;2023-02-13T04:37:57;11.17;;;7.13;;
72547;SDS011;60570;50.848;6.776;2023-02-13T04:38:58;10.52;;;7.30;;
72547;SDS011;60570;50.848;6.776;2023-02-13T04:39:58;11.50;;;7.77;;
72547;SDS011;60570;50.848;6.776;2023-02-13T04:40:58;11.75;;;7.60;;
72547;SDS011;60570;50.848;6.776;2023-02-13T04:41:59;11.37;;;7.67;;
72547;SDS011;60570;50.848;6.776;2023-02-13T04:43:00;11.20;;;7.25;;
72547;SDS011;60570;50.848;6.776;2023-02-13T04:44:00;10.63;;;7.20;;
72547;SDS011;60570;50.848;6.776;2023-02-13T04:45:00;11.13;;;7.72;;
72547;SDS011;60570;50.848;6.776;2023-02-13T04:46:01;11.00;;;7.40;;
72547;SDS011;60570;50.848;6.776;2023-02-13T04:47:01;11.05;;;7.80;;
72547;SDS011;60570;50.848;6.776;2023-02-13T04:48:02;11.23;;;7.30;;
72547;SDS011;60570;50.848;6.776;2023-02-13T04:49:02;10.80;;;7.00;;
72547;SDS011;60570;50.848;6.776;2023-02-13T04:50:03;10.97;;;7.23;;
72547;SDS011;60570;50.848;6.776;2023-02-13T04:51:04;11.35;;;7.35;;
72547;SDS011;60570;50.848;6.776;2023-02-13T04:52:04;10.93;;;7.25;;
72547;SDS011;60570;50.848;6.776;2023-02-13T04:53:05;11.57;;;7.63;;
72547;SDS011;60570;50.848;6.776;2023-02-13T04:54:06;11.45;;;7.13;;
72547;SDS011;60570;50.848;6.776;2023-02-13T04:55:06;10.43;;;7.30;;
72547;SDS011;60570;50.848;6.776;2023-02-13T04:56:07;10.57;;;7.50;;
72547;SDS011;60570;50.848;6.776;2023-02-13T04:57:07;11.40;;;7.55;;
72547;SDS011;60570;50.848;6.776;2023-02-13T04:58:08;11.20;;;6.93;;
72547;SDS011;60570;50.848;6.776;2023-02-13T04:59:08;11.35;;;7.60;;
72547;SDS011;60570;50.848;6.776;2023-02-13T05:00:09;11.30;;;7.37;;
72547;SDS011;60570;50.848;6.776;2023-02-13T05:01:11;11.40;;;7.43;;
72547;SDS011;60570;50.848;6.776;2023-02-13T05:02:13;11.15;;;7.50;;
72547;SDS011;60570;50.848;6.776;2023-02-13T05:03:13;11.20;;;7.60;;
72547;SDS011;60570;50.848;6.776;2023-02-13T05:04:14;10.67;;;7.30;;
72547;SDS011;60570;50.848;6.776;2023-02-13T05:05:16;10.95;;;7.53;;
72547;SDS011;60570;50.848;6.776;2023-02-13T05:06:17;10.80;;;7.33;;
72547;SDS011;60570;50.848;6.776;2023-02-13T05:07:17;11.27;;;7.40;;
72547;SDS011;60570;50.848;6.776;2023-02-13T05:08:18;10.87;;;7.67;;
72547;SDS011;60570;50.848;6.776;2023-02-13T05:09:18;10.68;;;7.47;;
72547;SDS011;60570;50.848;6.776;2023-02-13T05:10:19;10.83;;;7.30;;
72547;SDS011;60570;50.848;6.776;2023-02-13T05:11:19;12.32;;;7.68;;
72547;SDS011;60570;50.848;6.776;2023-02-13T05:12:20;11.23;;;7.57;;
72547;SDS011;60570;50.848;6.776;2023-02-13T05:13:20;10.48;;;7.22;;
72547;SDS011;60570;50.848;6.776;2023-02-13T05:14:21;11.37;;;7.70;;
72547;SDS011;60570;50.848;6.776;2023-02-13T05:15:21;11.33;;;7.53;;
72547;SDS011;60570;50.848;6.776;2023-02-13T05:16:22;11.27;;;7.55;;
72547;SDS011;60570;50.848;6.776;2023-02-13T05:17:23;11.35;;;8.02;;
72547;SDS011;60570;50.848;6.776;2023-02-13T05:18:23;11.47;;;7.83;;
72547;SDS011;60570;50.848;6.776;2023-02-13T05:19:24;11.73;;;7.60;;
72547;SDS011;60570;50.848;6.776;2023-02-13T05:20:24;11.80;;;7.97;;
72547;SDS011;60570;50.848;6.776;2023-02-13T05:21:25;11.35;;;7.57;;
72547;SDS011;60570;50.848;6.776;2023-02-13T05:22:48;12.27;;;8.05;;
72547;SDS011;60570;50.848;6.776;2023-02-13T05:24:11;10.82;;;7.65;;
72547;SDS011;60570;50.848;6.776;2023-02-13T05:25:11;11.07;;;7.43;;
72547;SDS011;60570;50.848;6.776;2023-02-13T05:26:12;11.15;;;7.88;;
72547;SDS011;60570;50.848;6.776;2023-02-13T05:27:12;11.70;;;7.43;;
72547;SDS011;60570;50.848;6.776;2023-02-13T05:28:13;11.68;;;7.80;;
72547;SDS011;60570;50.848;6.776;2023-02-13T05:29:32;11.38;;;7.57;;
72547;SDS011;60570;50.848;6.776;2023-02-13T05:30:32;12.20;;;8.13;;
72547;SDS011;60570;50.848;6.776;2023-02-13T05:31:33;10.40;;;7.18;;
72547;SDS011;60570;50.848;6.776;2023-02-13T05:32:33;11.27;;;7.90;;
72547;SDS011;60570;50.848;6.776;2023-02-13T05:33:33;11.85;;;7.50;;
72547;SDS011;60570;50.848;6.776;2023-02-13T05:34:34;11.70;;;7.63;;
72547;SDS011;60570;50.848;6.776;2023-02-13T05:35:34;11.23;;;7.70;;
72547;SDS011;60570;50.848;6.776;2023-02-13T05:36:35;11.15;;;7.47;;
72547;SDS011;60570;50.848;6.776;2023-02-13T05:37:35;12.03;;;8.07;;
72547;SDS011;60570;50.848;6.776;2023-02-13T05:38:35;11.63;;;7.70;;
72547;SDS011;60570;50.848;6.776;2023-02-13T05:39:36;11.33;;;7.60;;
72547;SDS011;60570;50.848;6.776;2023-02-13T05:40:36;11.07;;;7.50;;
72547;SDS011;60570;50.848;6.776;2023-02-13T05:41:37;11.33;;;7.90;;
72547;SDS011;60570;50.848;6.776;2023-02-13T05:42:37;12.27;;;8.60;;
72547;SDS011;60570;50.848;6.776;2023-02-13T05:43:39;11.75;;;7.90;;
72547;SDS011;60570;50.848;6.776;2023-02-13T05:44:39;12.10;;;8.00;;
72547;SDS011;60570;50.848;6.776;2023-02-13T05:45:40;12.27;;;7.93;;
72547;SDS011;60570;50.848;6.776;2023-02-13T05:46:40;11.70;;;7.83;;
72547;SDS011;60570;50.848;6.776;2023-02-13T05:47:41;11.45;;;7.88;;
72547;SDS011;60570;50.848;6.776;2023-02-13T05:48:42;11.03;;;7.43;;
72547;SDS011;60570;50.848;6.776;2023-02-13T05:49:42;13.87;;;8.00;;
72547;SDS011;60570;50.848;6.776;2023-02-13T05:50:45;11.10;;;7.53;;
72547;SDS011;60570;50.848;6.776;2023-02-13T05:51:46;12.65;;;8.40;;
72547;SDS011;60570;50.848;6.776;2023-02-13T05:52:46;11.13;;;7.50;;
72547;SDS011;60570;50.848;6.776;2023-02-13T05:53:47;11.57;;;7.75;;
72547;SDS011;60570;50.848;6.776;2023-02-13T05:54:47;10.73;;;7.60;;
72547;SDS011;60570;50.848;6.776;2023-02-13T05:55:47;11.25;;;7.88;;
72547;SDS011;60570;50.848;6.776;2023-02-13T05:56:51;11.52;;;7.85;;
72547;SDS011;60570;50.848;6.776;2023-02-13T05:57:54;11.20;;;7.43;;
72547;SDS011;60570;50.848;6.776;2023-02-13T05:58:56;11.52;;;7.82;;
72547;SDS011;60570;50.848;6.776;2023-02-13T05:59:57;12.37;;;7.97;;
72547;SDS011;60570;50.848;6.776;2023-02-13T06:00:57;12.70;;;8.00;;
72547;SDS011;60570;50.848;6.776;2023-02-13T06:01:59;11.50;;;7.80;;
72547;SDS011;60570;50.848;6.776;2023-02-13T06:02:59;11.53;;;7.33;;
72547;SDS011;60570;50.848;6.776;2023-02-13T06:03:59;12.13;;;7.65;;
72547;SDS011;60570;50.848;6.776;2023-02-13T06:05:00;12.13;;;7.83;;
72547;SDS011;60570;50.848;6.776;2023-02-13T06:06:00;12.45;;;8.43;;
72547;SDS011;60570;50.848;6.776;2023-02-13T06:07:01;11.30;;;7.60;;
72547;SDS011;60570;50.848;6.776;2023-02-13T06:08:02;12.00;;;8.20;;
72547;SDS011;60570;50.848;6.776;2023-02-13T06:09:02;11.90;;;7.95;;
72547;SDS011;60570;50.848;6.776;2023-02-13T06:10:03;12.67;;;8.17;;
72547;SDS011;60570;50.848;6.776;2023-02-13T06:11:04;12.57;;;8.05;;
72547;SDS011;60570;50.848;6.776;2023-02-13T06:12:05;12.40;;;8.30;;
72547;SDS011;60570;50.848;6.776;2023-02-13T06:13:05;11.70;;;7.43;;
72547;SDS011;60570;50.848;6.776;2023-02-13T06:14:06;11.93;;;8.03;;
72547;SDS011;60570;50.848;6.776;2023-02-13T06:15:06;13.60;;;8.57;;
72547;SDS011;60570;50.848;6.776;2023-02-13T06:16:08;12.70;;;8.00;;
72547;SDS011;60570;50.848;6.776;2023-02-13T06:17:09;11.13;;;7.47;;
72547;SDS011;60570;50.848;6.776;2023-02-13T06:18:10;12.60;;;7.90;;
72547;SDS011;60570;50.848;6.776;2023-02-13T06:19:10;12.23;;;8.00;;
72547;SDS011;60570;50.848;6.776;2023-02-13T06:20:11;12.47;;;8.40;;
72547;SDS011;60570;50.848;6.776;2023-02-13T06:21:11;13.35;;;8.10;;
72547;SDS011;60570;50.848;6.776;2023-02-13T06:22:12;13.90;;;8.57;;
72547;SDS011;60570;50.848;6.776;2023-02-13T06:23:12;12.20;;;8.05;;
72547;SDS011;60570;50.848;6.776;2023-02-13T06:24:13;12.13;;;8.13;;
72547;SDS011;60570;50.848;6.776;2023-02-13T06:25:13;12.30;;;7.88;;
72547;SDS011;60570;50.848;6.776;2023-02-13T06:26:14;11.93;;;7.40;;
72547;SDS011;60570;50.848;6.776;2023-02-13T06:27:14;13.23;;;8.07;;
72547;SDS011;60570;50.848;6.776;2023-02-13T06:28:14;12.23;;;7.90;;
72547;SDS011;60570;50.848;6.776;2023-02-13T06:29:15;12.30;;;8.15;;
72547;SDS011;60570;50.848;6.776;2023-02-13T06:30:16;12.37;;;7.93;;
72547;SDS011;60570;50.848;6.776;2023-02-13T06:31:17;12.30;;;7.63;;
72547;SDS011;60570;50.848;6.776;2023-02-13T06:32:18;11.83;;;8.17;;
72547;SDS011;60570;50.848;6.776;2023-02-13T06:33:18;12.55;;;8.18;;
72547;SDS011;60570;50.848;6.776;2023-02-13T06:34:18;12.50;;;7.67;;
72547;SDS011;60570;50.848;6.776;2023-02-13T06:35:19;11.77;;;8.10;;
72547;SDS011;60570;50.848;6.776;2023-02-13T06:36:19;11.70;;;7.77;;
72547;SDS011;60570;50.848;6.776;2023-02-13T06:37:20;12.57;;;8.20;;
72547;SDS011;60570;50.848;6.776;2023-02-13T06:38:20;12.05;;;7.55;;
72547;SDS011;60570;50.848;6.776;2023-02-13T06:39:21;12.52;;;7.97;;
72547;SDS011;60570;50.848;6.776;2023-02-13T06:40:21;11.37;;;7.87;;
72547;SDS011;60570;50.848;6.776;2023-02-13T06:41:21;11.50;;;7.63;;
72547;SDS011;60570;50.848;6.776;2023-02-13T06:42:22;11.40;;;7.38;;
72547;SDS011;60570;50.848;6.776;2023-02-13T06:43:22;12.37;;;7.93;;
72547;SDS011;60570;50.848;6.776;2023-02-13T06:44:23;11.15;;;7.93;;
72547;SDS011;60570;50.848;6.776;2023-02-13T06:45:23;10.63;;;7.43;;
72547;SDS011;60570;50.848;6.776;2023-02-13T06:46:24;11.63;;;7.57;;
72547;SDS011;60570;50.848;6.776;2023-02-13T06:47:24;13.03;;;8.00;;
72547;SDS011;60570;50.848;6.776;2023-02-13T06:48:25;11.75;;;7.70;;
72547;SDS011;60570;50.848;6.776;2023-02-13T06:49:25;12.00;;;7.63;;
72547;SDS011;60570;50.848;6.776;2023-02-13T06:50:25;11.40;;;7.10;;
72547;SDS011;60570;50.848;6.776;2023-02-13T06:51:26;11.65;;;7.40;;
72547;SDS011;60570;50.848;6.776;2023-02-13T06:52:26;11.47;;;7.87;;
72547;SDS011;60570;50.848;6.776;2023-02-13T06:53:29;11.13;;;7.32;;
72547;SDS011;60570;50.848;6.776;2023-02-13T06:54:30;11.20;;;7.30;;
72547;SDS011;60570;50.848;6.776;2023-02-13T06:55:30;11.23;;;7.50;;
72547;SDS011;60570;50.848;6.776;2023-02-13T06:56:30;12.57;;;7.77;;
72547;SDS011;60570;50.848;6.776;2023-02-13T06:57:31;10.82;;;7.22;;
72547;SDS011;60570;50.848;6.776;2023-02-13T06:58:32;11.83;;;7.57;;
72547;SDS011;60570;50.848;6.776;2023-02-13T06:59:33;12.02;;;7.88;;
72547;SDS011;60570;50.848;6.776;2023-02-13T07:00:34;12.30;;;7.70;;
72547;SDS011;60570;50.848;6.776;2023-02-13T07:01:36;12.15;;;7.63;;